HI1077 MDJB-MDJB
Flight info
| Callsign | HI1077 |
|---|---|
| Flight time | 0h 58m |
| Altitude | 4000 |
| Route | MDSI DCT EMULU DCT KERSO DCT APGET |
| Aircraft | A119/L-SFG/C |
Departure
| Time | 2026-05-04 19:47 |
|---|---|
| Airport | La Isabela International Airport (MDJB) |
Arrival
| Time | 2026-05-04 20:45 |
|---|---|
| Airport | La Isabela International Airport (MDJB) |
| Time | Latitude | Longitude | Altitude | Speed | Heading |
|---|---|---|---|---|---|
| 2026-05-04 19:44 | 18.57852 | -69.98251 | 84 ft | 0 kts | 109° |
| 2026-05-04 19:46 | 18.57851 | -69.98250 | 93 ft | 2 kts | 141° |
| 2026-05-04 19:46 | 18.57925 | -69.98358 | 244 ft | 44 kts | 20° |
| 2026-05-04 19:47 | 18.58519 | -69.98286 | 476 ft | 113 kts | 10° |
| 2026-05-04 19:47 | 18.59394 | -69.98223 | 785 ft | 134 kts | 6° |
| 2026-05-04 19:47 | 18.60297 | -69.98384 | 1058 ft | 133 kts | 341° |
| 2026-05-04 19:47 | 18.61129 | -69.98826 | 1347 ft | 133 kts | 326° |
| 2026-05-04 19:48 | 18.61920 | -69.99323 | 1634 ft | 133 kts | 328° |
| 2026-05-04 19:48 | 18.62722 | -69.99770 | 1920 ft | 126 kts | 333° |
| 2026-05-04 19:48 | 18.63511 | -70.00172 | 2306 ft | 124 kts | 335° |
| 2026-05-04 19:48 | 18.64260 | -70.00666 | 2710 ft | 127 kts | 316° |
| 2026-05-04 19:49 | 18.64849 | -70.01325 | 3201 ft | 126 kts | 306° |
| 2026-05-04 19:49 | 18.65406 | -70.02064 | 3494 ft | 129 kts | 311° |
| 2026-05-04 19:49 | 18.66030 | -70.02762 | 3655 ft | 135 kts | 313° |
| 2026-05-04 19:49 | 18.66693 | -70.03474 | 3750 ft | 138 kts | 315° |
| 2026-05-04 19:50 | 18.67418 | -70.04139 | 3901 ft | 141 kts | 320° |
| 2026-05-04 19:50 | 18.68168 | -70.04790 | 3941 ft | 137 kts | 320° |
| 2026-05-04 19:50 | 18.68895 | -70.05430 | 4007 ft | 136 kts | 320° |
| 2026-05-04 19:50 | 18.69585 | -70.06115 | 4035 ft | 137 kts | 313° |
| 2026-05-04 19:51 | 18.70242 | -70.06850 | 4030 ft | 137 kts | 311° |
| 2026-05-04 19:51 | 18.70820 | -70.07651 | 4023 ft | 137 kts | 303° |
| 2026-05-04 19:51 | 18.71358 | -70.08479 | 4020 ft | 137 kts | 302° |
| 2026-05-04 19:51 | 18.71895 | -70.09313 | 4019 ft | 137 kts | 302° |
| 2026-05-04 19:52 | 18.72428 | -70.10142 | 4018 ft | 137 kts | 302° |
| 2026-05-04 19:52 | 18.72956 | -70.10963 | 4018 ft | 137 kts | 303° |
| 2026-05-04 19:52 | 18.73493 | -70.11794 | 4018 ft | 137 kts | 303° |
| 2026-05-04 19:52 | 18.74030 | -70.12625 | 4018 ft | 137 kts | 303° |
| 2026-05-04 19:53 | 18.74570 | -70.13458 | 4018 ft | 137 kts | 303° |
| 2026-05-04 19:53 | 18.75110 | -70.14290 | 4018 ft | 137 kts | 303° |
| 2026-05-04 19:53 | 18.75650 | -70.15121 | 4018 ft | 137 kts | 303° |
| 2026-05-04 19:53 | 18.76183 | -70.15942 | 4018 ft | 137 kts | 303° |
| 2026-05-04 19:54 | 18.76723 | -70.16771 | 4018 ft | 137 kts | 303° |
| 2026-05-04 19:54 | 18.77264 | -70.17602 | 4018 ft | 137 kts | 303° |
| 2026-05-04 19:54 | 18.77807 | -70.18434 | 4018 ft | 137 kts | 303° |
| 2026-05-04 19:54 | 18.78351 | -70.19269 | 4018 ft | 137 kts | 303° |
| 2026-05-04 19:55 | 18.78892 | -70.20097 | 4018 ft | 137 kts | 303° |
| 2026-05-04 19:55 | 18.79436 | -70.20930 | 4018 ft | 137 kts | 303° |
| 2026-05-04 19:55 | 18.79979 | -70.21760 | 4018 ft | 137 kts | 303° |
| 2026-05-04 19:55 | 18.80521 | -70.22589 | 4018 ft | 137 kts | 303° |
| 2026-05-04 19:56 | 18.81059 | -70.23412 | 4018 ft | 137 kts | 303° |
| 2026-05-04 19:56 | 18.81602 | -70.24243 | 4018 ft | 137 kts | 303° |
| 2026-05-04 19:56 | 18.82145 | -70.25072 | 4018 ft | 137 kts | 303° |
| 2026-05-04 19:56 | 18.82507 | -70.25631 | 4018 ft | 137 kts | 302° |
| 2026-05-04 19:57 | 18.82961 | -70.26512 | 4020 ft | 137 kts | 294° |
| 2026-05-04 19:57 | 18.83376 | -70.27415 | 4019 ft | 137 kts | 293° |
| 2026-05-04 19:57 | 18.83781 | -70.28311 | 4019 ft | 137 kts | 293° |
| 2026-05-04 19:57 | 18.84189 | -70.29217 | 4018 ft | 137 kts | 293° |
| 2026-05-04 19:58 | 18.84597 | -70.30122 | 4018 ft | 137 kts | 293° |
| 2026-05-04 19:58 | 18.85005 | -70.31028 | 4018 ft | 137 kts | 293° |
| 2026-05-04 19:58 | 18.85415 | -70.31938 | 4018 ft | 137 kts | 293° |
| 2026-05-04 19:58 | 18.85826 | -70.32848 | 4018 ft | 137 kts | 293° |
| 2026-05-04 19:59 | 18.86234 | -70.33753 | 4018 ft | 137 kts | 293° |
| 2026-05-04 19:59 | 18.86644 | -70.34660 | 4018 ft | 137 kts | 293° |
| 2026-05-04 19:59 | 18.87049 | -70.35557 | 4019 ft | 137 kts | 293° |
| 2026-05-04 19:59 | 18.87439 | -70.36482 | 4014 ft | 135 kts | 287° |
| 2026-05-04 20:00 | 18.87621 | -70.37445 | 4022 ft | 134 kts | 275° |
| 2026-05-04 20:00 | 18.87741 | -70.38412 | 4023 ft | 134 kts | 274° |
| 2026-05-04 20:00 | 18.87854 | -70.39368 | 4157 ft | 129 kts | 273° |
| 2026-05-04 20:00 | 18.87962 | -70.40298 | 4382 ft | 126 kts | 273° |
| 2026-05-04 20:01 | 18.88069 | -70.41216 | 4628 ft | 125 kts | 273° |
| 2026-05-04 20:01 | 18.88174 | -70.42123 | 4875 ft | 125 kts | 273° |
| 2026-05-04 20:01 | 18.88280 | -70.43036 | 5126 ft | 124 kts | 273° |
| 2026-05-04 20:01 | 18.88385 | -70.43945 | 5375 ft | 124 kts | 273° |
| 2026-05-04 20:02 | 18.88489 | -70.44844 | 5623 ft | 123 kts | 273° |
| 2026-05-04 20:02 | 18.88592 | -70.45743 | 5871 ft | 123 kts | 273° |
| 2026-05-04 20:02 | 18.88696 | -70.46657 | 6031 ft | 128 kts | 273° |
| 2026-05-04 20:02 | 18.88803 | -70.47611 | 6060 ft | 132 kts | 273° |
| 2026-05-04 20:03 | 18.88911 | -70.48575 | 6043 ft | 132 kts | 273° |
| 2026-05-04 20:03 | 18.89018 | -70.49529 | 6025 ft | 132 kts | 273° |
| 2026-05-04 20:03 | 18.89127 | -70.50493 | 6017 ft | 132 kts | 273° |
| 2026-05-04 20:03 | 18.89236 | -70.51460 | 6016 ft | 132 kts | 273° |
| 2026-05-04 20:04 | 18.89346 | -70.52427 | 6017 ft | 132 kts | 273° |
| 2026-05-04 20:04 | 18.89455 | -70.53387 | 6018 ft | 132 kts | 273° |
| 2026-05-04 20:04 | 18.89565 | -70.54350 | 6019 ft | 132 kts | 273° |
| 2026-05-04 20:04 | 18.89674 | -70.55311 | 6019 ft | 132 kts | 273° |
| 2026-05-04 20:05 | 18.89784 | -70.56273 | 6019 ft | 132 kts | 273° |
| 2026-05-04 20:05 | 18.89894 | -70.57240 | 6018 ft | 132 kts | 273° |
| 2026-05-04 20:05 | 18.90003 | -70.58191 | 6018 ft | 132 kts | 273° |
| 2026-05-04 20:05 | 18.90112 | -70.59151 | 6018 ft | 132 kts | 273° |
| 2026-05-04 20:06 | 18.90223 | -70.60114 | 6018 ft | 132 kts | 273° |
| 2026-05-04 20:06 | 18.90333 | -70.61079 | 6018 ft | 132 kts | 273° |
| 2026-05-04 20:06 | 18.90444 | -70.62043 | 6018 ft | 132 kts | 273° |
| 2026-05-04 20:06 | 18.90554 | -70.63005 | 6018 ft | 132 kts | 273° |
| 2026-05-04 20:07 | 18.90665 | -70.63969 | 6018 ft | 132 kts | 273° |
| 2026-05-04 20:07 | 18.90775 | -70.64931 | 6018 ft | 132 kts | 273° |
| 2026-05-04 20:07 | 18.90886 | -70.65895 | 6018 ft | 132 kts | 273° |
| 2026-05-04 20:07 | 18.90997 | -70.66858 | 6018 ft | 132 kts | 273° |
| 2026-05-04 20:08 | 18.91108 | -70.67821 | 6018 ft | 132 kts | 273° |
| 2026-05-04 20:08 | 18.91219 | -70.68784 | 6023 ft | 132 kts | 273° |
| 2026-05-04 20:08 | 18.91344 | -70.69742 | 5973 ft | 129 kts | 276° |
| 2026-05-04 20:08 | 18.91425 | -70.70612 | 5428 ft | 114 kts | 268° |
| 2026-05-04 20:09 | 18.91469 | -70.71413 | 4905 ft | 106 kts | 264° |
| 2026-05-04 20:09 | 18.91464 | -70.72161 | 4464 ft | 96 kts | 269° |
| 2026-05-04 20:09 | 18.91414 | -70.72782 | 4310 ft | 68 kts | 233° |
| 2026-05-04 20:09 | 18.91095 | -70.72954 | 4210 ft | 42 kts | 191° |
| 2026-05-04 20:10 | 18.90789 | -70.72961 | 4099 ft | 46 kts | 147° |
| 2026-05-04 20:10 | 18.90724 | -70.72674 | 4075 ft | 38 kts | 108° |
| 2026-05-04 20:10 | 18.90739 | -70.72529 | 4055 ft | 26 kts | 106° |
| 2026-05-04 20:10 | 18.90749 | -70.72315 | 3996 ft | 23 kts | 94° |
| 2026-05-04 20:11 | 18.90777 | -70.72176 | 3974 ft | 18 kts | 19° |
| 2026-05-04 20:11 | 18.90801 | -70.72167 | 3959 ft | 0 kts | 41° |
| 2026-05-04 20:14 | 18.90808 | -70.72164 | 3987 ft | 7 kts | 91° |
| 2026-05-04 20:15 | 18.90791 | -70.71867 | 4051 ft | 73 kts | 90° |
| 2026-05-04 20:15 | 18.90830 | -70.71225 | 4296 ft | 96 kts | 90° |
| 2026-05-04 20:15 | 18.90862 | -70.70518 | 4672 ft | 97 kts | 89° |
| 2026-05-04 20:15 | 18.90805 | -70.69817 | 4943 ft | 96 kts | 102° |
| 2026-05-04 20:16 | 18.90676 | -70.69125 | 5214 ft | 100 kts | 107° |
| 2026-05-04 20:16 | 18.90519 | -70.68389 | 5330 ft | 102 kts | 107° |
| 2026-05-04 20:16 | 18.90363 | -70.67672 | 5545 ft | 98 kts | 107° |
| 2026-05-04 20:16 | 18.90216 | -70.66977 | 5791 ft | 96 kts | 107° |
| 2026-05-04 20:17 | 18.90077 | -70.66281 | 6002 ft | 100 kts | 106° |
| 2026-05-04 20:17 | 18.89932 | -70.65533 | 6060 ft | 108 kts | 105° |
| 2026-05-04 20:17 | 18.89968 | -70.64729 | 6037 ft | 112 kts | 84° |
| 2026-05-04 20:17 | 18.90145 | -70.63922 | 6022 ft | 115 kts | 81° |
| 2026-05-04 20:18 | 18.90284 | -70.63107 | 6012 ft | 112 kts | 92° |
| 2026-05-04 20:18 | 18.90183 | -70.62301 | 6014 ft | 109 kts | 108° |
| 2026-05-04 20:18 | 18.89969 | -70.61523 | 6018 ft | 110 kts | 110° |
| 2026-05-04 20:18 | 18.89743 | -70.60752 | 6018 ft | 110 kts | 111° |
| 2026-05-04 20:19 | 18.89516 | -70.59987 | 6018 ft | 110 kts | 111° |
| 2026-05-04 20:19 | 18.89286 | -70.59213 | 6018 ft | 110 kts | 111° |
| 2026-05-04 20:19 | 18.89056 | -70.58442 | 6018 ft | 110 kts | 111° |
| 2026-05-04 20:19 | 18.88827 | -70.57672 | 6018 ft | 110 kts | 111° |
| 2026-05-04 20:20 | 18.88598 | -70.56900 | 6018 ft | 110 kts | 111° |
| 2026-05-04 20:20 | 18.88370 | -70.56129 | 6018 ft | 110 kts | 110° |
| 2026-05-04 20:20 | 18.88144 | -70.55367 | 6018 ft | 110 kts | 110° |
| 2026-05-04 20:20 | 18.87916 | -70.54596 | 6018 ft | 110 kts | 110° |
| 2026-05-04 20:21 | 18.87687 | -70.53823 | 6018 ft | 110 kts | 110° |
| 2026-05-04 20:21 | 18.87459 | -70.53050 | 6018 ft | 110 kts | 110° |
| 2026-05-04 20:21 | 18.87003 | -70.51506 | 6018 ft | 110 kts | 110° |
| 2026-05-04 20:22 | 18.86775 | -70.50733 | 6018 ft | 110 kts | 110° |
| 2026-05-04 20:22 | 18.86547 | -70.49959 | 6023 ft | 110 kts | 110° |
| 2026-05-04 20:22 | 18.86314 | -70.49172 | 5882 ft | 116 kts | 110° |
| 2026-05-04 20:22 | 18.86068 | -70.48352 | 5650 ft | 117 kts | 110° |
| 2026-05-04 20:23 | 18.85818 | -70.47527 | 5403 ft | 118 kts | 110° |
| 2026-05-04 20:23 | 18.85569 | -70.46702 | 5156 ft | 118 kts | 110° |
| 2026-05-04 20:23 | 18.85320 | -70.45878 | 4908 ft | 118 kts | 110° |
| 2026-05-04 20:23 | 18.85070 | -70.45054 | 4661 ft | 118 kts | 110° |
| 2026-05-04 20:24 | 18.84819 | -70.44229 | 4413 ft | 118 kts | 111° |
| 2026-05-04 20:24 | 18.84571 | -70.43416 | 4175 ft | 118 kts | 110° |
| 2026-05-04 20:24 | 18.84320 | -70.42590 | 4001 ft | 114 kts | 111° |
| 2026-05-04 20:24 | 18.84084 | -70.41810 | 3974 ft | 111 kts | 110° |
| 2026-05-04 20:25 | 18.83851 | -70.41033 | 3993 ft | 111 kts | 110° |
| 2026-05-04 20:25 | 18.83619 | -70.40257 | 4012 ft | 111 kts | 110° |
| 2026-05-04 20:25 | 18.83386 | -70.39478 | 4020 ft | 111 kts | 110° |
| 2026-05-04 20:25 | 18.83152 | -70.38699 | 4021 ft | 111 kts | 110° |
| 2026-05-04 20:26 | 18.82918 | -70.37918 | 4020 ft | 111 kts | 110° |
| 2026-05-04 20:26 | 18.82684 | -70.37138 | 4019 ft | 111 kts | 110° |
| 2026-05-04 20:26 | 18.82449 | -70.36356 | 4018 ft | 111 kts | 110° |
| 2026-05-04 20:26 | 18.82218 | -70.35586 | 4018 ft | 111 kts | 110° |
| 2026-05-04 20:27 | 18.81984 | -70.34806 | 4018 ft | 111 kts | 110° |
| 2026-05-04 20:27 | 18.81750 | -70.34026 | 4018 ft | 111 kts | 110° |
| 2026-05-04 20:27 | 18.81516 | -70.33246 | 4018 ft | 111 kts | 110° |
| 2026-05-04 20:27 | 18.81281 | -70.32465 | 4018 ft | 111 kts | 110° |
| 2026-05-04 20:28 | 18.81046 | -70.31683 | 4018 ft | 112 kts | 110° |
| 2026-05-04 20:28 | 18.80803 | -70.30909 | 4020 ft | 111 kts | 115° |
| 2026-05-04 20:28 | 18.80382 | -70.30224 | 4022 ft | 111 kts | 129° |
| 2026-05-04 20:28 | 18.79902 | -70.29593 | 4012 ft | 110 kts | 130° |
| 2026-05-04 20:29 | 18.79416 | -70.28969 | 4013 ft | 110 kts | 130° |
| 2026-05-04 20:29 | 18.78928 | -70.28347 | 4017 ft | 110 kts | 131° |
| 2026-05-04 20:29 | 18.78442 | -70.27727 | 4018 ft | 110 kts | 131° |
| 2026-05-04 20:29 | 18.77954 | -70.27105 | 4019 ft | 110 kts | 131° |
| 2026-05-04 20:30 | 18.77466 | -70.26483 | 4019 ft | 110 kts | 131° |
| 2026-05-04 20:30 | 18.76919 | -70.25925 | 4039 ft | 111 kts | 147° |
| 2026-05-04 20:30 | 18.76221 | -70.25571 | 4016 ft | 111 kts | 155° |
| 2026-05-04 20:30 | 18.75515 | -70.25252 | 4011 ft | 110 kts | 155° |
| 2026-05-04 20:31 | 18.74822 | -70.24933 | 4014 ft | 110 kts | 154° |
| 2026-05-04 20:31 | 18.74142 | -70.24565 | 4018 ft | 110 kts | 150° |
| 2026-05-04 20:31 | 18.73472 | -70.24173 | 4019 ft | 110 kts | 150° |
| 2026-05-04 20:31 | 18.72804 | -70.23778 | 4018 ft | 110 kts | 150° |
| 2026-05-04 20:32 | 18.72135 | -70.23382 | 4018 ft | 110 kts | 150° |
| 2026-05-04 20:32 | 18.71469 | -70.22986 | 4018 ft | 110 kts | 150° |
| 2026-05-04 20:32 | 18.70796 | -70.22587 | 3993 ft | 113 kts | 149° |
| 2026-05-04 20:32 | 18.70106 | -70.22170 | 3743 ft | 118 kts | 148° |
| 2026-05-04 20:33 | 18.69441 | -70.21662 | 3410 ft | 118 kts | 142° |
| 2026-05-04 20:33 | 18.68801 | -70.21117 | 3066 ft | 118 kts | 141° |
| 2026-05-04 20:33 | 18.68164 | -70.20566 | 2720 ft | 118 kts | 141° |
| 2026-05-04 20:33 | 18.67527 | -70.20013 | 2375 ft | 119 kts | 140° |
| 2026-05-04 20:34 | 18.66889 | -70.19463 | 2075 ft | 118 kts | 141° |
| 2026-05-04 20:34 | 18.66264 | -70.18926 | 1970 ft | 114 kts | 141° |
| 2026-05-04 20:34 | 18.65654 | -70.18403 | 1972 ft | 112 kts | 141° |
| 2026-05-04 20:34 | 18.65051 | -70.17884 | 1998 ft | 112 kts | 141° |
| 2026-05-04 20:35 | 18.64449 | -70.17365 | 2016 ft | 112 kts | 141° |
| 2026-05-04 20:35 | 18.63844 | -70.16844 | 2022 ft | 113 kts | 141° |
| 2026-05-04 20:35 | 18.63235 | -70.16324 | 2021 ft | 113 kts | 141° |
| 2026-05-04 20:35 | 18.62627 | -70.15800 | 2020 ft | 113 kts | 141° |
| 2026-05-04 20:36 | 18.62029 | -70.15286 | 2019 ft | 113 kts | 141° |
| 2026-05-04 20:36 | 18.61421 | -70.14763 | 2018 ft | 113 kts | 141° |
| 2026-05-04 20:36 | 18.60814 | -70.14241 | 2018 ft | 113 kts | 141° |
| 2026-05-04 20:36 | 18.60206 | -70.13718 | 2018 ft | 113 kts | 141° |
| 2026-05-04 20:37 | 18.59599 | -70.13197 | 2018 ft | 113 kts | 141° |
| 2026-05-04 20:37 | 18.58991 | -70.12674 | 2018 ft | 113 kts | 141° |
| 2026-05-04 20:37 | 18.58383 | -70.12152 | 2018 ft | 113 kts | 141° |
| 2026-05-04 20:37 | 18.57775 | -70.11630 | 2018 ft | 113 kts | 141° |
| 2026-05-04 20:38 | 18.57169 | -70.11108 | 2018 ft | 113 kts | 141° |
| 2026-05-04 20:38 | 18.56560 | -70.10586 | 2018 ft | 113 kts | 141° |
| 2026-05-04 20:38 | 18.55962 | -70.10072 | 2018 ft | 113 kts | 141° |
| 2026-05-04 20:38 | 18.55352 | -70.09548 | 2018 ft | 113 kts | 141° |
| 2026-05-04 20:39 | 18.54744 | -70.09025 | 2018 ft | 113 kts | 141° |
| 2026-05-04 20:39 | 18.54138 | -70.08505 | 2018 ft | 113 kts | 141° |
| 2026-05-04 20:39 | 18.53530 | -70.07982 | 2018 ft | 113 kts | 141° |
| 2026-05-04 20:39 | 18.52922 | -70.07460 | 2018 ft | 113 kts | 141° |
| 2026-05-04 20:40 | 18.52316 | -70.06940 | 2018 ft | 113 kts | 141° |
| 2026-05-04 20:40 | 18.51714 | -70.06423 | 2018 ft | 113 kts | 141° |
| 2026-05-04 20:40 | 18.51106 | -70.05901 | 2018 ft | 113 kts | 141° |
| 2026-05-04 20:40 | 18.50499 | -70.05380 | 2018 ft | 113 kts | 141° |
| 2026-05-04 20:41 | 18.49891 | -70.04857 | 2018 ft | 113 kts | 141° |
| 2026-05-04 20:41 | 18.49285 | -70.04336 | 2018 ft | 113 kts | 141° |
| 2026-05-04 20:41 | 18.48676 | -70.03813 | 2018 ft | 113 kts | 141° |
| 2026-05-04 20:41 | 18.48069 | -70.03292 | 2019 ft | 113 kts | 141° |
| 2026-05-04 20:42 | 18.47461 | -70.02770 | 2018 ft | 113 kts | 141° |
| 2026-05-04 20:42 | 18.46853 | -70.02248 | 2019 ft | 113 kts | 141° |
| 2026-05-04 20:42 | 18.46243 | -70.01723 | 1986 ft | 116 kts | 140° |
| 2026-05-04 20:42 | 18.45595 | -70.01165 | 1649 ft | 122 kts | 140° |
| 2026-05-04 20:43 | 18.44937 | -70.00602 | 1197 ft | 121 kts | 140° |
| 2026-05-04 20:43 | 18.44303 | -70.00077 | 844 ft | 114 kts | 141° |
| 2026-05-04 20:43 | 18.43675 | -69.99569 | 604 ft | 114 kts | 141° |
| 2026-05-04 20:43 | 18.43111 | -69.99049 | 599 ft | 108 kts | 129° |
| 2026-05-04 20:44 | 18.43000 | -69.98306 | 601 ft | 111 kts | 84° |
| 2026-05-04 20:44 | 18.43195 | -69.97503 | 626 ft | 115 kts | 80° |
| 2026-05-04 20:44 | 18.43410 | -69.96695 | 654 ft | 117 kts | 80° |
| 2026-05-04 20:44 | 18.43634 | -69.95875 | 588 ft | 118 kts | 80° |
| 2026-05-04 20:45 | 18.43861 | -69.95051 | 427 ft | 110 kts | 79° |
| 2026-05-04 20:45 | 18.43919 | -69.94341 | 413 ft | 98 kts | 111° |
| 2026-05-04 20:45 | 18.43478 | -69.94428 | 248 ft | 79 kts | 233° |
| 2026-05-04 20:45 | 18.43367 | -69.94680 | 104 ft | 15 kts | 254° |
| 2026-05-04 20:46 | 18.43352 | -69.94742 | 73 ft | 10 kts | 200° |
| 2026-05-04 20:46 | 18.43358 | -69.94703 | 82 ft | 9 kts | 80° |
| 2026-05-04 20:46 | 18.43366 | -69.94684 | 57 ft | 1 kts | 91° |
| 2026-05-04 20:46 | 18.43369 | -69.94677 | 56 ft | 0 kts | 98° |
| 2026-05-04 20:48 | 18.43369 | -69.94676 | 56 ft | 0 kts | 98° |
| 2026-05-04 20:48 | 18.43370 | -69.94673 | 59 ft | 3 kts | 76° |
| 2026-05-04 20:49 | 18.43379 | -69.94664 | 81 ft | 10 kts | 325° |
| 2026-05-04 20:49 | 18.43286 | -69.94555 | 192 ft | 62 kts | 86° |
| 2026-05-04 20:49 | 18.43864 | -69.94457 | 335 ft | 125 kts | 345° |
| 2026-05-04 20:49 | 18.44773 | -69.94750 | 543 ft | 142 kts | 346° |
| 2026-05-04 20:50 | 18.45678 | -69.94948 | 801 ft | 132 kts | 355° |
| 2026-05-04 20:50 | 18.46624 | -69.95139 | 888 ft | 141 kts | 353° |
| 2026-05-04 20:50 | 18.47581 | -69.95356 | 874 ft | 141 kts | 352° |
| 2026-05-04 20:50 | 18.48545 | -69.95577 | 869 ft | 141 kts | 352° |
| 2026-05-04 20:51 | 18.49504 | -69.95795 | 868 ft | 141 kts | 353° |
| 2026-05-04 20:51 | 18.50469 | -69.96013 | 867 ft | 141 kts | 353° |
| 2026-05-04 20:51 | 18.51431 | -69.96227 | 867 ft | 141 kts | 353° |
| 2026-05-04 20:51 | 18.52395 | -69.96441 | 866 ft | 141 kts | 353° |
| 2026-05-04 20:52 | 18.53358 | -69.96652 | 866 ft | 141 kts | 353° |
| 2026-05-04 20:52 | 18.54322 | -69.96863 | 866 ft | 141 kts | 353° |
| 2026-05-04 20:52 | 18.55278 | -69.97070 | 865 ft | 141 kts | 353° |
| 2026-05-04 20:52 | 18.56244 | -69.97190 | 867 ft | 139 kts | 2° |
| 2026-05-04 20:53 | 18.57213 | -69.97243 | 866 ft | 140 kts | 3° |
| 2026-05-04 20:53 | 18.58187 | -69.97288 | 865 ft | 140 kts | 4° |
| 2026-05-04 20:53 | 18.59157 | -69.97333 | 870 ft | 138 kts | 0° |
| 2026-05-04 20:53 | 18.59453 | -69.98082 | 722 ft | 119 kts | 231° |
| 2026-05-04 20:54 | 18.58824 | -69.98265 | 456 ft | 89 kts | 175° |
| 2026-05-04 20:54 | 18.58333 | -69.98298 | 315 ft | 56 kts | 178° |
| 2026-05-04 20:54 | 18.58077 | -69.98328 | 215 ft | 25 kts | 184° |
| 2026-05-04 20:54 | 18.57933 | -69.98331 | 169 ft | 17 kts | 187° |
| 2026-05-04 20:55 | 18.57838 | -69.98321 | 122 ft | 13 kts | 102° |
| 2026-05-04 20:55 | 18.57834 | -69.98271 | 108 ft | 3 kts | 101° |
| 2026-05-04 20:55 | 18.57831 | -69.98252 | 87 ft | 1 kts | 103° |